Time;durP1;ratioP1;P1;durP2;ratioP2;P2;SDS_P1;SDS_P2;PMS_P1;PMS_P2;Temp;Humidity;BMP_temperature;BMP_pressure;BME280_temperature;BME280_humidity;BME280_pressure;Samples;Min_cycle;Max_cycle;Signal;HPM_P1;HPM_P2
2023/04/01 00:00:20;;;;;;;4.50;1.90;;;;;;;-128.00;-1.00;-1.00;103407;1256;1003182;-78
2023/04/01 00:03:06;;;;;;;3.00;1.80;;;;;;;-128.00;-1.00;-1.00;103389;1261;1014308;-78
2023/04/01 00:05:33;;;;;;;4.30;2.60;;;;;;;-128.00;-1.00;-1.00;103439;1260;1002684;-78
2023/04/01 00:08:00;;;;;;;5.10;2.20;;;;;;;-128.00;-1.00;-1.00;103489;1256;1002507;-78
2023/04/01 00:10:27;;;;;;;3.40;1.40;;;;;;;-128.00;-1.00;-1.00;103440;1256;1002690;-78
2023/04/01 00:12:53;;;;;;;5.50;2.10;;;;;;;-128.00;-1.00;-1.00;103402;1256;1002178;-80
2023/04/01 00:15:20;;;;;;;3.80;2.10;;;;;;;-128.00;-1.00;-1.00;103450;1260;1002635;-80
2023/04/01 00:17:47;;;;;;;7.90;2.60;;;;;;;-128.00;-1.00;-1.00;103389;1259;1002923;-79
2023/04/01 00:20:14;;;;;;;9.50;3.70;;;;;;;-128.00;-1.00;-1.00;103198;1256;1004205;-80
2023/04/01 00:22:40;;;;;;;13.20;6.80;;;;;;;-128.00;-1.00;-1.00;103429;1256;1002984;-78
2023/04/01 00:25:07;;;;;;;7.20;4.10;;;;;;;-128.00;-1.00;-1.00;103491;1256;1002583;-79
2023/04/01 00:27:33;;;;;;;9.60;5.10;;;;;;;-128.00;-1.00;-1.00;104746;1256;1002451;-76
2023/04/01 00:30:00;;;;;;;11.70;6.20;;;;;;;-128.00;-1.00;-1.00;104598;1259;1002579;-80
2023/04/01 00:32:27;;;;;;;10.80;4.80;;;;;;;-128.00;-1.00;-1.00;103430;1256;1002232;-79
2023/04/01 00:34:53;;;;;;;9.80;5.90;;;;;;;-128.00;-1.00;-1.00;103402;1256;1002527;-78
2023/04/01 00:37:20;;;;;;;10.00;6.50;;;;;;;-128.00;-1.00;-1.00;103432;1256;1005328;-78
2023/04/01 00:39:47;;;;;;;10.90;8.70;;;;;;;-128.00;-1.00;-1.00;103208;1262;1002461;-79
2023/04/01 00:42:13;;;;;;;15.30;10.00;;;;;;;-128.00;-1.00;-1.00;103393;1256;1002617;-79
2023/04/01 00:44:40;;;;;;;14.30;9.50;;;;;;;-128.00;-1.00;-1.00;103425;1260;1002404;-79
2023/04/01 00:47:07;;;;;;;7.80;4.90;;;;;;;-128.00;-1.00;-1.00;103392;1257;1003576;-80
2023/04/01 00:49:37;;;;;;;8.40;4.40;;;;;;;-128.00;-1.00;-1.00;103390;1260;1002311;-78
2023/04/01 00:52:04;;;;;;;5.70;2.70;;;;;;;-128.00;-1.00;-1.00;104983;1259;1013506;-78
2023/04/01 00:54:30;;;;;;;6.10;2.80;;;;;;;-128.00;-1.00;-1.00;103198;1262;1002696;-79
2023/04/01 00:57:01;;;;;;;7.30;2.70;;;;;;;-128.00;-1.00;-1.00;103290;1259;1002909;-80
2023/04/01 00:59:30;;;;;;;7.00;3.10;;;;;;;-128.00;-1.00;-1.00;103386;1256;1009747;-80
2023/04/01 01:01:56;;;;;;;8.10;2.90;;;;;;;-128.00;-1.00;-1.00;103449;1259;1011068;-79
2023/04/01 01:04:28;;;;;;;5.30;3.20;;;;;;;-128.00;-1.00;-1.00;103434;1257;1003304;-79
2023/04/01 01:07:13;;;;;;;7.20;3.70;;;;;;;-128.00;-1.00;-1.00;106520;1257;1012602;-77
2023/04/01 01:09:49;;;;;;;6.90;3.70;;;;;;;-128.00;-1.00;-1.00;103536;1255;1013094;-79
2023/04/01 01:12:20;;;;;;;8.70;4.20;;;;;;;-128.00;-1.00;-1.00;103343;1257;1009825;-80
2023/04/01 01:14:59;;;;;;;10.00;5.80;;;;;;;-128.00;-1.00;-1.00;103357;1257;1011201;-80
2023/04/01 01:17:49;;;;;;;11.20;5.30;;;;;;;-128.00;-1.00;-1.00;103440;1257;1015606;-78
2023/04/01 01:20:50;;;;;;;15.50;5.90;;;;;;;-128.00;-1.00;-1.00;103352;1259;1012951;-81
2023/04/01 01:23:22;;;;;;;16.10;6.60;;;;;;;-128.00;-1.00;-1.00;103441;1257;1013054;-78
2023/04/01 01:25:55;;;;;;;13.00;6.10;;;;;;;-128.00;-1.00;-1.00;103412;1256;1009788;-80
2023/04/01 01:28:44;;;;;;;10.70;4.60;;;;;;;-128.00;-1.00;-1.00;103420;1257;1010489;-80
2023/04/01 01:31:12;;;;;;;;;;;;;;;-128.00;-1.00;-1.00;103345;1256;1013846;-80
2023/04/01 01:34:17;;;;;;;7.10;3.50;;;;;;;-128.00;-1.00;-1.00;103397;1260;1002738;-78
2023/04/01 01:36:44;;;;;;;6.30;1.80;;;;;;;-128.00;-1.00;-1.00;103409;1256;1013484;-81
2023/04/01 01:39:11;;;;;;;4.60;1.90;;;;;;;-128.00;-1.00;-1.00;103391;1256;1002478;-79
2023/04/01 01:41:37;;;;;;;4.40;2.20;;;;;;;-128.00;-1.00;-1.00;103399;1257;1004401;-81
2023/04/01 01:44:06;;;;;;;5.20;2.70;;;;;;;-128.00;-1.00;-1.00;103328;1257;1002748;-80
2023/04/01 01:46:33;;;;;;;8.40;3.30;;;;;;;-128.00;-1.00;-1.00;104457;1260;1012172;-79
2023/04/01 01:48:59;;;;;;;5.30;2.90;;;;;;;-128.00;-1.00;-1.00;103324;1256;1002653;-80
2023/04/01 01:51:26;;;;;;;5.70;2.80;;;;;;;-128.00;-1.00;-1.00;103405;1256;1002711;-78
2023/04/01 01:53:53;;;;;;;4.00;2.00;;;;;;;-128.00;-1.00;-1.00;103036;1256;1002787;-79
2023/04/01 01:56:22;;;;;;;5.20;2.60;;;;;;;-128.00;-1.00;-1.00;103391;1256;1002712;-80
2023/04/01 01:58:51;;;;;;;6.40;3.80;;;;;;;-128.00;-1.00;-1.00;105660;1259;1012692;-80
2023/04/01 02:01:23;;;;;;;3.60;2.40;;;;;;;-128.00;-1.00;-1.00;103407;1257;1012980;-79
2023/04/01 02:03:49;;;;;;;8.70;3.20;;;;;;;-128.00;-1.00;-1.00;104178;1256;1009913;-79
2023/04/01 02:06:18;;;;;;;9.10;4.10;;;;;;;-128.00;-1.00;-1.00;103688;1257;1002765;-78
2023/04/01 02:09:06;;;;;;;6.50;2.70;;;;;;;-128.00;-1.00;-1.00;103952;1262;1013245;-81
2023/04/01 02:11:46;;;;;;;3.80;1.90;;;;;;;-128.00;-1.00;-1.00;104516;1256;1012596;-78
2023/04/01 02:14:42;;;;;;;5.60;2.30;;;;;;;-128.00;-1.00;-1.00;103441;1258;1012773;-78
2023/04/01 02:17:19;;;;;;;6.50;1.90;;;;;;;-128.00;-1.00;-1.00;103360;1255;1010832;-81
2023/04/01 02:19:50;;;;;;;3.30;1.90;;;;;;;-128.00;-1.00;-1.00;103896;1261;1011067;-79
2023/04/01 02:22:19;;;;;;;5.20;2.50;;;;;;;-128.00;-1.00;-1.00;106492;1256;1013079;-79
2023/04/01 02:24:46;;;;;;;4.80;2.30;;;;;;;-128.00;-1.00;-1.00;103873;1257;1013034;-80
2023/04/01 02:27:13;;;;;;;5.20;3.20;;;;;;;-128.00;-1.00;-1.00;103455;1259;1002756;-80
2023/04/01 02:29:39;;;;;;;6.90;4.30;;;;;;;-128.00;-1.00;-1.00;103211;1256;1004707;-79
2023/04/01 02:32:05;;;;;;;5.40;3.00;;;;;;;-128.00;-1.00;-1.00;103402;1256;1003144;-78
2023/04/01 02:34:32;;;;;;;6.30;2.60;;;;;;;-128.00;-1.00;-1.00;103303;1256;1002820;-80
2023/04/01 02:36:58;;;;;;;4.20;2.40;;;;;;;-128.00;-1.00;-1.00;103151;1256;1002657;-78
2023/04/01 02:39:26;;;;;;;9.70;5.50;;;;;;;-128.00;-1.00;-1.00;103388;1256;1002542;-80
2023/04/01 02:41:52;;;;;;;4.50;3.60;;;;;;;-128.00;-1.00;-1.00;103466;1256;1002447;-79
2023/04/01 02:44:18;;;;;;;8.60;4.90;;;;;;;-128.00;-1.00;-1.00;103428;1257;1002761;-81
2023/04/01 02:46:45;;;;;;;8.50;5.20;;;;;;;-128.00;-1.00;-1.00;103416;1256;1002474;-80
2023/04/01 02:49:11;;;;;;;9.70;6.00;;;;;;;-128.00;-1.00;-1.00;103428;1261;1003527;-80
2023/04/01 02:51:38;;;;;;;7.80;5.80;;;;;;;-128.00;-1.00;-1.00;103183;1256;1002892;-80
2023/04/01 02:54:04;;;;;;;9.80;6.00;;;;;;;-128.00;-1.00;-1.00;103408;1256;1002477;-78
2023/04/01 02:56:30;;;;;;;13.50;4.90;;;;;;;-128.00;-1.00;-1.00;103445;1256;1002564;-79
2023/04/01 02:58:57;;;;;;;10.70;4.60;;;;;;;-128.00;-1.00;-1.00;103446;1256;1003408;-80
2023/04/01 03:01:23;;;;;;;7.80;4.10;;;;;;;-128.00;-1.00;-1.00;103442;1257;1002524;-78
2023/04/01 03:03:50;;;;;;;7.70;4.80;;;;;;;-128.00;-1.00;-1.00;103437;1256;1002534;-80
2023/04/01 03:06:16;;;;;;;11.50;5.70;;;;;;;-128.00;-1.00;-1.00;103412;1256;1002386;-79
2023/04/01 03:08:43;;;;;;;17.10;7.70;;;;;;;-128.00;-1.00;-1.00;103428;1259;1004072;-78
2023/04/01 03:11:10;;;;;;;12.80;5.10;;;;;;;-128.00;-1.00;-1.00;103428;1255;1002583;-78
2023/04/01 03:13:36;;;;;;;9.70;4.70;;;;;;;-128.00;-1.00;-1.00;103468;1257;1002379;-81
2023/04/01 03:16:03;;;;;;;6.10;4.00;;;;;;;-128.00;-1.00;-1.00;103341;1257;1002897;-80
2023/04/01 03:18:29;;;;;;;9.40;5.50;;;;;;;-128.00;-1.00;-1.00;103430;1256;1002778;-79
2023/04/01 03:20:56;;;;;;;11.70;6.20;;;;;;;-128.00;-1.00;-1.00;103419;1257;1002595;-78
2023/04/01 03:23:24;;;;;;;10.80;7.10;;;;;;;-128.00;-1.00;-1.00;103433;1256;1002653;-81
2023/04/01 03:25:50;;;;;;;12.90;6.80;;;;;;;-128.00;-1.00;-1.00;103979;1259;1002667;-78
2023/04/01 03:28:16;;;;;;;17.30;7.90;;;;;;;-128.00;-1.00;-1.00;103359;1256;1002912;-79
2023/04/01 03:30:43;;;;;;;12.70;6.40;;;;;;;-128.00;-1.00;-1.00;103424;1256;1003153;-78
2023/04/01 03:33:09;;;;;;;11.20;6.00;;;;;;;-128.00;-1.00;-1.00;103467;1257;1002629;-79
2023/04/01 03:35:36;;;;;;;9.10;5.70;;;;;;;-128.00;-1.00;-1.00;103456;1256;1003191;-78
2023/04/01 03:38:02;;;;;;;12.70;6.90;;;;;;;-128.00;-1.00;-1.00;103419;1260;1002859;-78
2023/04/01 03:40:28;;;;;;;16.60;6.20;;;;;;;-128.00;-1.00;-1.00;103412;1256;1002558;-80
2023/04/01 03:42:55;;;;;;;9.70;6.20;;;;;;;-128.00;-1.00;-1.00;103404;1256;1003001;-80
2023/04/01 03:45:22;;;;;;;9.70;6.40;;;;;;;-128.00;-1.00;-1.00;104610;1257;1002375;-76
2023/04/01 03:47:48;;;;;;;11.00;6.30;;;;;;;-128.00;-1.00;-1.00;103419;1256;1002781;-76
2023/04/01 03:50:15;;;;;;;11.90;8.00;;;;;;;-128.00;-1.00;-1.00;103374;1256;1002829;-78
2023/04/01 03:52:41;;;;;;;10.30;9.00;;;;;;;-128.00;-1.00;-1.00;103402;1256;1002946;-78
2023/04/01 03:55:08;;;;;;;14.60;12.00;;;;;;;-128.00;-1.00;-1.00;103488;1256;1004185;-80
2023/04/01 03:57:34;;;;;;;14.30;11.20;;;;;;;-128.00;-1.00;-1.00;103410;1256;1002763;-81
2023/04/01 04:00:01;;;;;;;14.50;9.80;;;;;;;-128.00;-1.00;-1.00;104863;1256;1003544;-78
2023/04/01 04:02:27;;;;;;;7.70;5.30;;;;;;;-128.00;-1.00;-1.00;103468;1256;1002613;-81
2023/04/01 04:04:54;;;;;;;8.30;5.60;;;;;;;-128.00;-1.00;-1.00;103794;1256;1002642;-80
2023/04/01 04:07:20;;;;;;;6.10;4.40;;;;;;;-128.00;-1.00;-1.00;103412;1257;1006066;-80
2023/04/01 04:09:47;;;;;;;4.20;3.30;;;;;;;-128.00;-1.00;-1.00;103442;1257;1004634;-80
2023/04/01 04:12:14;;;;;;;9.60;6.90;;;;;;;-128.00;-1.00;-1.00;103428;1256;1002684;-78
2023/04/01 04:14:40;;;;;;;16.50;11.00;;;;;;;-128.00;-1.00;-1.00;103408;1256;1004448;-79
2023/04/01 04:17:08;;;;;;;7.50;3.30;;;;;;;-128.00;-1.00;-1.00;103396;1256;1003883;-80
2023/04/01 04:19:34;;;;;;;7.20;3.60;;;;;;;-128.00;-1.00;-1.00;103352;1256;1002902;-80
2023/04/01 04:22:01;;;;;;;5.90;2.70;;;;;;;-128.00;-1.00;-1.00;103450;1257;1004674;-80
2023/04/01 04:24:27;;;;;;;4.70;2.20;;;;;;;-128.00;-1.00;-1.00;103763;1256;1003249;-81
2023/04/01 04:26:54;;;;;;;5.60;2.60;;;;;;;-128.00;-1.00;-1.00;103968;1256;1003072;-78
2023/04/01 04:29:22;;;;;;;5.10;3.00;;;;;;;-128.00;-1.00;-1.00;104005;1257;1002437;-80
2023/04/01 04:31:49;;;;;;;8.50;4.10;;;;;;;-128.00;-1.00;-1.00;103438;1261;1010625;-78
2023/04/01 04:34:15;;;;;;;6.40;2.60;;;;;;;-128.00;-1.00;-1.00;103437;1257;1002891;-79
2023/04/01 04:36:41;;;;;;;3.70;2.50;;;;;;;-128.00;-1.00;-1.00;103657;1257;1002420;-80
2023/04/01 04:39:08;;;;;;;8.40;2.60;;;;;;;-128.00;-1.00;-1.00;103175;1257;1002294;-78
2023/04/01 04:41:36;;;;;;;4.60;3.00;;;;;;;-128.00;-1.00;-1.00;103413;1257;1003007;-78
2023/04/01 04:44:03;;;;;;;9.80;4.40;;;;;;;-128.00;-1.00;-1.00;103363;1257;1009940;-80
2023/04/01 04:46:29;;;;;;;6.70;3.30;;;;;;;-128.00;-1.00;-1.00;103409;1256;1003846;-80
2023/04/01 04:48:56;;;;;;;12.60;6.90;;;;;;;-128.00;-1.00;-1.00;103425;1256;1002223;-81
2023/04/01 04:51:22;;;;;;;20.00;8.80;;;;;;;-128.00;-1.00;-1.00;103541;1258;1002928;-77
2023/04/01 04:53:49;;;;;;;9.60;4.80;;;;;;;-128.00;-1.00;-1.00;103402;1257;1002602;-80
2023/04/01 04:56:22;;;;;;;9.10;4.50;;;;;;;-128.00;-1.00;-1.00;103400;1256;1005152;-77
2023/04/01 04:58:48;;;;;;;18.80;7.50;;;;;;;-128.00;-1.00;-1.00;103403;1256;1013871;-78
2023/04/01 05:01:15;;;;;;;21.20;7.00;;;;;;;-128.00;-1.00;-1.00;103201;1256;1002610;-78
2023/04/01 05:03:42;;;;;;;20.50;8.00;;;;;;;-128.00;-1.00;-1.00;103392;1256;1002744;-78
2023/04/01 05:06:09;;;;;;;19.60;7.40;;;;;;;-128.00;-1.00;-1.00;103497;1257;1002596;-78
2023/04/01 05:08:36;;;;;;;15.70;7.50;;;;;;;-128.00;-1.00;-1.00;103390;1257;1002503;-79
2023/04/01 05:11:02;;;;;;;15.40;9.50;;;;;;;-128.00;-1.00;-1.00;103926;1257;1002872;-77
2023/04/01 05:13:28;;;;;;;9.20;5.70;;;;;;;-128.00;-1.00;-1.00;103398;1256;1002416;-78
2023/04/01 05:15:55;;;;;;;14.30;8.30;;;;;;;-128.00;-1.00;-1.00;103610;1261;1002505;-78
2023/04/01 05:18:21;;;;;;;12.40;8.30;;;;;;;-128.00;-1.00;-1.00;103221;1256;1003393;-78
2023/04/01 05:20:49;;;;;;;15.80;8.20;;;;;;;-128.00;-1.00;-1.00;103304;1258;1003299;-78
2023/04/01 05:23:16;;;;;;;21.10;13.20;;;;;;;-128.00;-1.00;-1.00;103430;1256;1002095;-80
2023/04/01 05:25:42;;;;;;;23.00;9.80;;;;;;;-128.00;-1.00;-1.00;103672;1260;1002667;-80
2023/04/01 05:28:09;;;;;;;9.20;5.90;;;;;;;-128.00;-1.00;-1.00;103437;1256;1004652;-80
2023/04/01 05:30:35;;;;;;;12.90;5.20;;;;;;;-128.00;-1.00;-1.00;103415;1257;1004470;-77
2023/04/01 05:33:02;;;;;;;8.20;5.20;;;;;;;-128.00;-1.00;-1.00;103362;1256;1002534;-80
2023/04/01 05:35:28;;;;;;;10.60;6.30;;;;;;;-128.00;-1.00;-1.00;103398;1262;1003101;-78
2023/04/01 05:37:54;;;;;;;6.90;4.40;;;;;;;-128.00;-1.00;-1.00;103358;1261;1003033;-78
2023/04/01 05:40:21;;;;;;;7.90;4.50;;;;;;;-128.00;-1.00;-1.00;103400;1256;1003432;-80
2023/04/01 05:42:47;;;;;;;8.40;3.50;;;;;;;-128.00;-1.00;-1.00;103401;1256;1002850;-79
2023/04/01 05:45:15;;;;;;;6.50;3.00;;;;;;;-128.00;-1.00;-1.00;103416;1256;1004804;-80
2023/04/01 05:47:42;;;;;;;6.70;3.50;;;;;;;-128.00;-1.00;-1.00;103107;1257;1002773;-78
2023/04/01 05:50:10;;;;;;;7.80;4.40;;;;;;;-128.00;-1.00;-1.00;103186;1259;1002638;-80
2023/04/01 05:52:37;;;;;;;10.30;4.20;;;;;;;-128.00;-1.00;-1.00;103421;1262;1012444;-78
2023/04/01 05:55:04;;;;;;;6.50;2.60;;;;;;;-128.00;-1.00;-1.00;103408;1257;1004162;-80
2023/04/01 05:57:30;;;;;;;7.00;2.90;;;;;;;-128.00;-1.00;-1.00;103307;1257;1002653;-78
2023/04/01 05:59:57;;;;;;;8.30;4.20;;;;;;;-128.00;-1.00;-1.00;103415;1257;1003879;-78
2023/04/01 06:02:23;;;;;;;4.80;2.80;;;;;;;-128.00;-1.00;-1.00;103401;1257;1003151;-80
2023/04/01 06:05:02;;;;;;;9.20;4.60;;;;;;;-128.00;-1.00;-1.00;103401;1259;1004082;-80
2023/04/01 06:07:29;;;;;;;8.10;3.60;;;;;;;-128.00;-1.00;-1.00;103382;1257;1012307;-80
2023/04/01 06:09:55;;;;;;;5.30;3.70;;;;;;;-128.00;-1.00;-1.00;103420;1257;1002567;-80
2023/04/01 06:12:26;;;;;;;5.90;3.10;;;;;;;-128.00;-1.00;-1.00;103434;1259;1002755;-78
2023/04/01 06:15:18;;;;;;;8.60;4.20;;;;;;;-128.00;-1.00;-1.00;103327;1256;1015675;-80
2023/04/01 06:18:03;;;;;;;9.60;4.50;;;;;;;-128.00;-1.00;-1.00;103517;1260;1013415;-78
2023/04/01 06:20:34;;;;;;;11.00;6.70;;;;;;;-128.00;-1.00;-1.00;103404;1255;1013202;-78
2023/04/01 06:23:22;;;;;;;9.80;5.20;;;;;;;-128.00;-1.00;-1.00;103372;1257;1010848;-81
2023/04/01 06:25:53;;;;;;;9.30;6.30;;;;;;;-128.00;-1.00;-1.00;103445;1260;1011194;-81
2023/04/01 06:28:39;;;;;;;19.40;12.80;;;;;;;-128.00;-1.00;-1.00;103304;1257;1016965;-80
2023/04/01 06:31:21;;;;;;;6.50;3.50;;;;;;;-128.00;-1.00;-1.00;103402;1262;1013327;-80
2023/04/01 06:34:03;;;;;;;7.80;4.60;;;;;;;-128.00;-1.00;-1.00;103413;1257;1012957;-78
2023/04/01 06:36:47;;;;;;;6.30;4.20;;;;;;;-128.00;-1.00;-1.00;103426;1256;1009804;-78
2023/04/01 06:39:28;;;;;;;8.10;4.10;;;;;;;-128.00;-1.00;-1.00;103418;1257;1010930;-78
2023/04/01 06:42:14;;;;;;;11.30;4.30;;;;;;;-128.00;-1.00;-1.00;103426;1261;1012981;-78
2023/04/01 06:44:55;;;;;;;6.20;3.30;;;;;;;-128.00;-1.00;-1.00;103449;1261;1015124;-79
2023/04/01 06:47:43;;;;;;;4.10;2.60;;;;;;;-128.00;-1.00;-1.00;104182;1257;1012499;-76
2023/04/01 06:50:19;;;;;;;5.20;2.70;;;;;;;-128.00;-1.00;-1.00;103438;1256;1014777;-80
2023/04/01 06:53:24;;;;;;;6.80;4.80;;;;;;;-128.00;-1.00;-1.00;103188;1257;1011343;-78
2023/04/01 06:56:02;;;;;;;6.60;4.20;;;;;;;-128.00;-1.00;-1.00;102807;1264;1014170;-78
2023/04/01 06:58:35;;;;;;;4.80;2.30;;;;;;;-128.00;-1.00;-1.00;103111;1256;1014200;-78
2023/04/01 07:01:04;;;;;;;6.60;2.40;;;;;;;-128.00;-1.00;-1.00;103702;1257;1012832;-78
2023/04/01 07:03:41;;;;;;;4.60;2.30;;;;;;;-128.00;-1.00;-1.00;103341;1257;1009773;-78
2023/04/01 07:06:14;;;;;;;8.20;3.30;;;;;;;-128.00;-1.00;-1.00;103727;1257;1010738;-81
2023/04/01 07:08:41;;;;;;;7.20;2.80;;;;;;;-128.00;-1.00;-1.00;103570;1257;1013554;-79
2023/04/01 07:11:16;;;;;;;5.80;2.90;;;;;;;-128.00;-1.00;-1.00;103436;1259;1003225;-80
2023/04/01 07:13:49;;;;;;;6.50;3.20;;;;;;;-128.00;-1.00;-1.00;103465;1257;1013626;-78
2023/04/01 07:16:20;;;;;;;8.70;4.30;;;;;;;-128.00;-1.00;-1.00;103474;1257;1009817;-79
2023/04/01 07:18:50;;;;;;;6.90;2.70;;;;;;;-128.00;-1.00;-1.00;103343;1256;1011313;-77
2023/04/01 07:21:31;;;;;;;9.40;3.90;;;;;;;-128.00;-1.00;-1.00;103426;1257;1013384;-81
2023/04/01 07:24:01;;;;;;;5.90;2.90;;;;;;;-128.00;-1.00;-1.00;103761;1256;1013338;-78
2023/04/01 07:26:28;;;;;;;4.70;2.40;;;;;;;-128.00;-1.00;-1.00;103189;1262;1016396;-80
2023/04/01 07:28:54;;;;;;;6.70;2.30;;;;;;;-128.00;-1.00;-1.00;103433;1256;1004169;-77
2023/04/01 07:31:45;;;;;;;6.30;3.30;;;;;;;-128.00;-1.00;-1.00;103401;1259;1002506;-79
2023/04/01 07:34:26;;;;;;;6.70;2.40;;;;;;;-128.00;-1.00;-1.00;103177;1263;1013899;-79
2023/04/01 07:37:13;;;;;;;5.80;2.80;;;;;;;-128.00;-1.00;-1.00;103338;1260;1013280;-80
2023/04/01 07:39:44;;;;;;;6.30;2.70;;;;;;;-128.00;-1.00;-1.00;103274;1257;1013106;-77
2023/04/01 07:42:30;;;;;;;4.20;2.30;;;;;;;-128.00;-1.00;-1.00;103160;1266;1009525;-77
2023/04/01 07:45:16;;;;;;;7.10;2.60;;;;;;;-128.00;-1.00;-1.00;103428;1256;1011645;-79
2023/04/01 07:47:59;;;;;;;4.70;2.10;;;;;;;-128.00;-1.00;-1.00;103441;1257;1013168;-80
2023/04/01 07:50:27;;;;;;;4.30;2.30;;;;;;;-128.00;-1.00;-1.00;103356;1257;1013868;-80
2023/04/01 07:52:59;;;;;;;5.20;2.40;;;;;;;-128.00;-1.00;-1.00;103527;1258;1013251;-79
2023/04/01 07:55:29;;;;;;;6.80;2.30;;;;;;;-128.00;-1.00;-1.00;103392;1262;1010453;-77
2023/04/01 07:58:14;;;;;;;6.30;3.10;;;;;;;-128.00;-1.00;-1.00;103407;1261;1011519;-77
2023/04/01 08:01:05;;;;;;;5.90;3.30;;;;;;;-128.00;-1.00;-1.00;103419;1258;1013812;-79
2023/04/01 08:04:15;;;;;;;4.50;2.40;;;;;;;-128.00;-1.00;-1.00;103421;1257;1013289;-80
2023/04/01 08:07:07;;;;;;;8.80;3.70;;;;;;;-128.00;-1.00;-1.00;103280;1262;1012838;-78
2023/04/01 08:09:55;;;;;;;4.60;2.50;;;;;;;-128.00;-1.00;-1.00;103203;1257;1009710;-80
2023/04/01 08:12:40;;;;;;;8.50;3.40;;;;;;;-128.00;-1.00;-1.00;103420;1257;1012112;-79
2023/04/01 08:15:12;;;;;;;8.10;2.90;;;;;;;-128.00;-1.00;-1.00;103524;1262;1012988;-80
2023/04/01 08:18:01;;;;;;;5.90;2.60;;;;;;;-128.00;-1.00;-1.00;103454;1258;1012875;-78
2023/04/01 08:20:47;;;;;;;15.50;3.80;;;;;;;-128.00;-1.00;-1.00;103555;1259;1013871;-80
2023/04/01 08:23:28;;;;;;;4.20;2.80;;;;;;;-128.00;-1.00;-1.00;103367;1257;1010078;-80
2023/04/01 08:26:15;;;;;;;6.60;2.80;;;;;;;-128.00;-1.00;-1.00;103167;1256;1011214;-80
2023/04/01 08:28:50;;;;;;;24.80;18.00;;;;;;;-128.00;-1.00;-1.00;103099;1258;1012892;-80
2023/04/01 08:31:29;;;;;;;6.30;3.10;;;;;;;-128.00;-1.00;-1.00;103306;1260;1017005;-80
2023/04/01 08:33:56;;;;;;;4.00;2.20;;;;;;;-128.00;-1.00;-1.00;103398;1262;1013304;-78
2023/04/01 08:36:34;;;;;;;5.40;2.30;;;;;;;-128.00;-1.00;-1.00;103138;1263;1002518;-78
2023/04/01 08:39:08;;;;;;;7.60;3.00;;;;;;;-128.00;-1.00;-1.00;103682;1262;1011712;-78
2023/04/01 08:41:49;;;;;;;3.70;2.30;;;;;;;-128.00;-1.00;-1.00;103247;1257;1014148;-78
2023/04/01 08:44:32;;;;;;;3.20;2.00;;;;;;;-128.00;-1.00;-1.00;103389;1262;1012917;-78
2023/04/01 08:47:30;;;;;;;4.40;2.40;;;;;;;-128.00;-1.00;-1.00;103333;1257;1013228;-80
2023/04/01 08:50:36;;;;;;;9.10;2.80;;;;;;;-128.00;-1.00;-1.00;103279;1256;1010786;-77
2023/04/01 08:53:34;;;;;;;3.50;2.50;;;;;;;-128.00;-1.00;-1.00;103303;1257;1011233;-77
2023/04/01 08:56:13;;;;;;;4.20;2.00;;;;;;;-128.00;-1.00;-1.00;103340;1262;1012628;-78
2023/04/01 08:58:46;;;;;;;5.70;2.70;;;;;;;-128.00;-1.00;-1.00;103396;1263;1012727;-78
2023/04/01 09:01:35;;;;;;;6.70;2.30;;;;;;;-128.00;-1.00;-1.00;103274;1261;1012977;-78
2023/04/01 09:04:07;;;;;;;;;;;;;;;-128.00;-1.00;-1.00;103243;1259;1009890;-78
2023/04/01 09:07:03;;;;;;;3.20;1.80;;;;;;;-128.00;-1.00;-1.00;103278;1260;1011097;-80
2023/04/01 09:09:40;;;;;;;3.60;1.90;;;;;;;-128.00;-1.00;-1.00;103246;1259;1014255;-80
2023/04/01 09:12:22;;;;;;;3.40;2.00;;;;;;;-128.00;-1.00;-1.00;103289;1262;1013855;-80
2023/04/01 09:14:58;;;;;;;4.80;2.20;;;;;;;-128.00;-1.00;-1.00;103271;1261;1014191;-77
2023/04/01 09:17:43;;;;;;;5.00;1.90;;;;;;;-128.00;-1.00;-1.00;103276;1263;1009811;-80
2023/04/01 09:20:39;;;;;;;5.30;2.30;;;;;;;-128.00;-1.00;-1.00;103246;1263;1011554;-80
2023/04/01 09:23:05;;;;;;;3.80;2.10;;;;;;;-128.00;-1.00;-1.00;103173;1263;1014286;-77
2023/04/01 09:26:10;;;;;;;3.90;2.00;;;;;;;-128.00;-1.00;-1.00;103306;1263;1002890;-80
2023/04/01 09:29:00;;;;;;;4.90;2.40;;;;;;;-128.00;-1.00;-1.00;103284;1259;1012578;-80
2023/04/01 09:31:36;;;;;;;3.30;1.70;;;;;;;-128.00;-1.00;-1.00;103313;1261;1010736;-79
2023/04/01 09:34:09;;;;;;;5.00;1.70;;;;;;;-128.00;-1.00;-1.00;103307;1258;1011188;-79
2023/04/01 09:36:46;;;;;;;2.80;1.20;;;;;;;-128.00;-1.00;-1.00;103226;1261;1013354;-78
2023/04/01 09:39:30;;;;;;;3.50;1.70;;;;;;;-128.00;-1.00;-1.00;103264;1257;1012949;-78
2023/04/01 09:42:00;;;;;;;4.20;2.70;;;;;;;-128.00;-1.00;-1.00;103214;1261;1013007;-79
2023/04/01 09:44:34;;;;;;;5.20;3.60;;;;;;;-128.00;-1.00;-1.00;103513;1259;1010143;-79
2023/04/01 09:47:00;;;;;;;6.50;3.40;;;;;;;-128.00;-1.00;-1.00;103758;1258;1012076;-80
2023/04/01 09:49:45;;;;;;;7.60;4.00;;;;;;;-128.00;-1.00;-1.00;103649;1263;1002783;-78
2023/04/01 09:52:25;;;;;;;4.90;2.50;;;;;;;-128.00;-1.00;-1.00;103834;1263;1012562;-78
2023/04/01 09:55:03;;;;;;;2.90;1.70;;;;;;;-128.00;-1.00;-1.00;103442;1261;1013005;-80
2023/04/01 09:57:40;;;;;;;4.10;2.10;;;;;;;-128.00;-1.00;-1.00;103412;1258;1010600;-79
2023/04/01 10:00:44;;;;;;;2.80;1.90;;;;;;;-128.00;-1.00;-1.00;103166;1263;1014084;-81
2023/04/01 10:03:29;;;;;;;7.00;4.30;;;;;;;-128.00;-1.00;-1.00;103344;1257;1012813;-78
2023/04/01 10:06:14;;;;;;;7.60;2.30;;;;;;;-128.00;-1.00;-1.00;103357;1258;1013211;-78
2023/04/01 10:09:14;;;;;;;9.50;2.90;;;;;;;-128.00;-1.00;-1.00;103455;1258;1016315;-78
2023/04/01 10:11:59;;;;;;;3.00;1.50;;;;;;;-128.00;-1.00;-1.00;103411;1264;1010387;-80
2023/04/01 10:14:53;;;;;;;2.20;1.50;;;;;;;-128.00;-1.00;-1.00;103551;1257;1011159;-80
2023/04/01 10:17:48;;;;;;;11.40;6.30;;;;;;;-128.00;-1.00;-1.00;103511;1257;1013396;-80
2023/04/01 10:20:39;;;;;;;6.90;1.60;;;;;;;-128.00;-1.00;-1.00;103701;1260;1017449;-80
2023/04/01 10:23:25;;;;;;;3.40;1.50;;;;;;;-128.00;-1.00;-1.00;103717;1257;1013933;-80
2023/04/01 10:26:26;;;;;;;4.60;2.70;;;;;;;-128.00;-1.00;-1.00;103588;1260;1010193;-78
2023/04/01 10:29:17;;;;;;;3.40;2.30;;;;;;;-128.00;-1.00;-1.00;103486;1261;1011781;-77
2023/04/01 10:32:03;;;;;;;2.60;1.50;;;;;;;-128.00;-1.00;-1.00;103549;1257;1013563;-81
2023/04/01 10:34:39;;;;;;;2.80;1.50;;;;;;;-128.00;-1.00;-1.00;104297;1260;1012782;-78
2023/04/01 10:37:32;;;;;;;4.00;1.50;;;;;;;-128.00;-1.00;-1.00;104013;1263;1013687;-77
2023/04/01 10:40:37;;;;;;;2.30;1.40;;;;;;;-128.00;-1.00;-1.00;103494;1257;1009883;-80
2023/04/01 10:43:16;;;;;;;5.90;2.30;;;;;;;-128.00;-1.00;-1.00;103441;1257;1010996;-78
2023/04/01 10:45:58;;;;;;;2.70;1.30;;;;;;;-128.00;-1.00;-1.00;103270;1264;1013384;-79
2023/04/01 10:48:45;;;;;;;2.30;1.20;;;;;;;-128.00;-1.00;-1.00;103483;1261;1012867;-79
2023/04/01 10:51:34;;;;;;;3.60;1.30;;;;;;;-128.00;-1.00;-1.00;104056;1261;1012652;-77
2023/04/01 10:54:36;;;;;;;2.50;0.90;;;;;;;-128.00;-1.00;-1.00;103478;1257;1009981;-79
2023/04/01 10:57:22;;;;;;;2.10;0.90;;;;;;;-128.00;-1.00;-1.00;103523;1257;1011010;-78
2023/04/01 11:00:08;;;;;;;1.80;0.90;;;;;;;-128.00;-1.00;-1.00;103464;1257;1016114;-80
2023/04/01 11:03:11;;;;;;;2.60;1.20;;;;;;;-128.00;-1.00;-1.00;103500;1257;1013238;-77
2023/04/01 11:06:17;;;;;;;1.20;0.80;;;;;;;-128.00;-1.00;-1.00;103378;1257;1012709;-80
2023/04/01 11:09:06;;;;;;;6.10;3.70;;;;;;;-128.00;-1.00;-1.00;103462;1257;1011071;-78
2023/04/01 11:11:38;;;;;;;5.30;2.80;;;;;;;-128.00;-1.00;-1.00;103467;1257;1011296;-78
2023/04/01 11:14:26;;;;;;;14.60;10.00;;;;;;;-128.00;-1.00;-1.00;103539;1258;1013333;-78
2023/04/01 11:17:00;;;;;;;3.50;1.60;;;;;;;-128.00;-1.00;-1.00;103517;1260;1013059;-79
2023/04/01 11:19:49;;;;;;;2.80;1.50;;;;;;;-128.00;-1.00;-1.00;103293;1256;1012645;-78
2023/04/01 11:22:34;;;;;;;3.60;1.40;;;;;;;-128.00;-1.00;-1.00;103478;1260;1010274;-80
2023/04/01 11:25:18;;;;;;;2.60;1.30;;;;;;;-128.00;-1.00;-1.00;103465;1257;1011737;-80
2023/04/01 11:28:03;;;;;;;3.70;1.50;;;;;;;-128.00;-1.00;-1.00;103610;1257;1016976;-78
2023/04/01 11:30:55;;;;;;;4.60;2.20;;;;;;;-128.00;-1.00;-1.00;103543;1260;1012957;-78
2023/04/01 11:33:35;;;;;;;2.70;1.30;;;;;;;-128.00;-1.00;-1.00;103427;1258;1013086;-80
2023/04/01 11:36:11;;;;;;;5.20;2.30;;;;;;;-128.00;-1.00;-1.00;103552;1258;1010296;-78
2023/04/01 11:39:20;;;;;;;4.60;2.10;;;;;;;-128.00;-1.00;-1.00;103489;1260;1010861;-80
2023/04/01 11:41:59;;;;;;;12.10;3.30;;;;;;;-128.00;-1.00;-1.00;103270;1258;1013122;-80
2023/04/01 11:44:27;;;;;;;3.60;1.60;;;;;;;-128.00;-1.00;-1.00;103524;1260;1013797;-79
2023/04/01 11:47:04;;;;;;;3.10;2.40;;;;;;;-128.00;-1.00;-1.00;103238;1257;1003463;-78
2023/04/01 11:49:44;;;;;;;5.10;2.50;;;;;;;-128.00;-1.00;-1.00;103407;1260;1009760;-78
2023/04/01 11:52:27;;;;;;;4.50;2.20;;;;;;;-128.00;-1.00;-1.00;103464;1258;1010729;-78